Quick Links (Output Below):   Max & Min Temps   /   Climate Reports   /   Zone Forecasts
River Forecasts   /   Forestry Forecasts   /   Aviation Forecasts   /   Radars   /   Features

Terminal Aerodrome Forecast (El Dorado)

Pick a Site:
Arkadelphia | El Dorado | Fayetteville | Fort Smith | Harrison | Highfill | Hot Springs | Jonesboro
Little Rock | Monticello | Mountain Home | Pine Bluff | Texarkana
 Forecast 

KELD 201738Z 2018/2118 21007KT P6SM FEW030 SCT250
     FM210000 17008KT P6SM VCTS SCT045CB SCT250
     FM210200 19005KT P6SM SCT250
     FM211500 22007KT P6SM FEW030 SCT150 SCT250=


 Latest METARs (Observations) 
How to Decode METARs
22Z KELD 202153Z AUTO 17006KT 10SM SCT042 32/23 A2999 RMK AO2 SLP153
         T03220228
         
21Z KELD 202053Z AUTO 15005KT 10SM CLR 33/22 A3000 RMK AO2 SLP155
         T03330222 58017
         
20Z KELD 201953Z AUTO 18006KT 10SM FEW040 33/23 A3002 RMK AO2 SLP162
         T03280233
         
19Z KELD 201853Z AUTO 16004KT 10SM FEW036 32/23 A3004 RMK AO2 SLP167
         T03220233
         
18Z KELD 201753Z AUTO 23003KT 10SM SCT031 31/24 A3005 RMK AO2 SLP172
         T03110239 10317 20206 58001
         
17Z KELD 201653Z AUTO VRB05KT 10SM FEW030 31/24 A3005 RMK AO2 SLP173
         T03110239
         
16Z KELD 201553Z AUTO 21007KT 190V260 10SM CLR 29/24 A3005 RMK AO2
         SLP173 T02890239
         
15Z KELD 201453Z AUTO 22006KT 10SM CLR 28/24 A3005 RMK AO2 SLP173
         T02780239 52015
         
14Z KELD 201353Z AUTO 19005KT 10SM CLR 26/22 A3004 RMK AO2 SLP168
         T02560222
         
13Z KELD 201253Z AUTO 19004KT 10SM CLR 22/21 A3003 RMK AO2 SLP164
         T02220211
         
***** Today's Observations (Above) *****


Back to Main Page
http://www.srh.noaa.gov/lzk/qfcst.php

USA.gov is the U.S. government's official web portal to all federal, state and local government web resources and services.